This is the latest recevied weather packets stored in our database for station/object N8WEL. If no packets are shown the sender has not sent any weather packets the latest 10 day(s).
| Time | Temp. | Humidity | Pressure | Rain* | Wind** | Luminosity | Snow |
|---|---|---|---|---|---|---|---|
| 1777599442 | 6.67° C | 77% | 1014.4 hPa | 0 mm | - | - | - |
| 1777599042 | 6.67° C | 77% | 1014.3 hPa | 0 mm | - | - | - |
| 1777598722 | 6.67° C | 75% | 1014.2 hPa | 0 mm | - | - | - |
| 1777598242 | 7.22° C | 73% | 1014.2 hPa | 0 mm | - | - | - |
| 1777597904 | 7.78° C | 72% | 1014.2 hPa | 0 mm | - | - | - |
| 1777597577 | 7.78° C | 72% | 1014.1 hPa | 0 mm | - | - | - |
| 1777597330 | 8.33° C | 69% | 1014.1 hPa | 0 mm | - | - | - |
| 1777596997 | 8.33° C | 68% | 1014 hPa | 0 mm | - | - | - |
| 1777596488 | 9.44° C | 64% | 1013.8 hPa | 0 mm | - | - | - |
| 1777596115 | 10° C | 60% | 1013.9 hPa | 0 mm | - | - | - |
| 1777595812 | 10.56° C | 56% | 1013.8 hPa | 0 mm | - | - | - |
| 1777595811 | 10.56° C | 55% | 1013.7 hPa | 0 mm | - | - | - |
| 1777595272 | 11.11° C | 51% | 1013.8 hPa | 0 mm | - | - | - |
| 1777594833 | 11.67° C | 50% | 1013.8 hPa | 0 mm | - | - | - |
| 1777594677 | 11.67° C | 48% | 1013.9 hPa | 0 mm | - | - | - |
| 1777593760 | 11.67° C | 47% | 1013.9 hPa | 0 mm | - | - | - |
| 1777593461 | 12.22° C | 47% | 1013.9 hPa | 0 mm | - | - | - |
| 1777593163 | 12.22° C | 47% | 1014 hPa | 0 mm | - | - | - |
| 1777592860 | 12.22° C | 46% | 1013.9 hPa | 0 mm | - | - | - |
| 1777592260 | 12.22° C | 46% | 1013.9 hPa | 0 mm | - | - | - |
| 1777591960 | 12.22° C | 46% | 1013.9 hPa | 0 mm | - | - | - |
| 1777591660 | 12.22° C | 45% | 1013.9 hPa | 0 mm | - | - | - |
| 1777591384 | 12.78° C | 46% | 1013.9 hPa | 0 mm | - | - | - |
| 1777591067 | 12.78° C | 45% | 1014 hPa | 0 mm | - | - | - |
| 1777590763 | 12.78° C | 45% | 1014.1 hPa | 0 mm | - | - | - |
* Rain latest hour (hover to see other rain measurements)
** Current wind speed in m/s (hover to see current wind gust speed)